sensor_id;sensor_type;location;lat;lon;timestamp;temperature;humidity
50606;DHT22;36557;53.572;10.170;2024-02-23T00:01:15;10.10;99.90
50606;DHT22;36557;53.572;10.170;2024-02-23T00:03:41;10.10;99.90
50606;DHT22;36557;53.572;10.170;2024-02-23T00:06:07;10.10;99.90
50606;DHT22;36557;53.572;10.170;2024-02-23T00:08:34;10.10;99.90
50606;DHT22;36557;53.572;10.170;2024-02-23T00:11:00;10.00;99.90
50606;DHT22;36557;53.572;10.170;2024-02-23T00:13:25;10.00;99.90
50606;DHT22;36557;53.572;10.170;2024-02-23T00:15:51;10.00;99.90
50606;DHT22;36557;53.572;10.170;2024-02-23T00:18:17;10.00;99.90
50606;DHT22;36557;53.572;10.170;2024-02-23T00:20:43;9.90;99.90
50606;DHT22;36557;53.572;10.170;2024-02-23T00:23:09;10.00;99.90
50606;DHT22;36557;53.572;10.170;2024-02-23T00:25:34;9.90;99.90
50606;DHT22;36557;53.572;10.170;2024-02-23T00:28:00;9.80;99.90
50606;DHT22;36557;53.572;10.170;2024-02-23T00:30:26;9.70;99.90
50606;DHT22;36557;53.572;10.170;2024-02-23T00:32:52;9.70;99.90
50606;DHT22;36557;53.572;10.170;2024-02-23T00:35:18;9.60;99.90
50606;DHT22;36557;53.572;10.170;2024-02-23T00:37:44;9.60;99.90
50606;DHT22;36557;53.572;10.170;2024-02-23T00:40:10;9.50;99.90
50606;DHT22;36557;53.572;10.170;2024-02-23T00:42:36;9.50;99.90
50606;DHT22;36557;53.572;10.170;2024-02-23T00:45:04;9.50;99.90
50606;DHT22;36557;53.572;10.170;2024-02-23T00:47:30;9.60;99.90
50606;DHT22;36557;53.572;10.170;2024-02-23T00:49:56;9.50;99.90
50606;DHT22;36557;53.572;10.170;2024-02-23T00:52:21;9.50;99.90
50606;DHT22;36557;53.572;10.170;2024-02-23T00:54:47;9.50;99.90
50606;DHT22;36557;53.572;10.170;2024-02-23T00:57:13;9.50;99.90
50606;DHT22;36557;53.572;10.170;2024-02-23T00:59:39;9.50;99.90
50606;DHT22;36557;53.572;10.170;2024-02-23T01:02:04;9.40;99.90
50606;DHT22;36557;53.572;10.170;2024-02-23T01:04:30;9.20;99.90
50606;DHT22;36557;53.572;10.170;2024-02-23T01:06:57;8.80;99.90
50606;DHT22;36557;53.572;10.170;2024-02-23T01:09:23;8.40;99.90
50606;DHT22;36557;53.572;10.170;2024-02-23T01:11:49;8.00;99.90
50606;DHT22;36557;53.572;10.170;2024-02-23T01:14:15;7.70;99.90
50606;DHT22;36557;53.572;10.170;2024-02-23T01:16:40;7.50;99.90
50606;DHT22;36557;53.572;10.170;2024-02-23T01:19:06;7.40;99.90
50606;DHT22;36557;53.572;10.170;2024-02-23T01:21:32;7.40;99.90
50606;DHT22;36557;53.572;10.170;2024-02-23T01:23:57;7.30;99.90
50606;DHT22;36557;53.572;10.170;2024-02-23T01:26:23;7.40;99.90
50606;DHT22;36557;53.572;10.170;2024-02-23T01:28:49;7.40;99.90
50606;DHT22;36557;53.572;10.170;2024-02-23T01:31:15;7.30;99.90
50606;DHT22;36557;53.572;10.170;2024-02-23T01:33:40;7.30;99.90
50606;DHT22;36557;53.572;10.170;2024-02-23T01:36:06;7.30;99.90
50606;DHT22;36557;53.572;10.170;2024-02-23T01:38:33;7.30;99.90
50606;DHT22;36557;53.572;10.170;2024-02-23T01:41:00;7.20;99.90
50606;DHT22;36557;53.572;10.170;2024-02-23T01:43:25;7.20;99.90
50606;DHT22;36557;53.572;10.170;2024-02-23T01:45:51;7.20;99.90
50606;DHT22;36557;53.572;10.170;2024-02-23T01:48:18;7.20;99.90
50606;DHT22;36557;53.572;10.170;2024-02-23T01:50:44;7.20;99.90
50606;DHT22;36557;53.572;10.170;2024-02-23T01:53:12;7.20;99.90
50606;DHT22;36557;53.572;10.170;2024-02-23T12:41:17;8.80;1.00
50606;DHT22;36557;53.572;10.170;2024-02-23T12:43:42;9.00;93.60
50606;DHT22;36557;53.572;10.170;2024-02-23T12:46:08;9.10;99.90
50606;DHT22;36557;53.572;10.170;2024-02-23T12:48:34;9.10;99.90
50606;DHT22;36557;53.572;10.170;2024-02-23T12:51:03;9.10;1.00
50606;DHT22;36557;53.572;10.170;2024-02-23T12:55:58;9.10;1.00
50606;DHT22;36557;53.572;10.170;2024-02-23T12:58:24;9.00;1.00
50606;DHT22;36557;53.572;10.170;2024-02-23T13:00:50;9.00;1.00
50606;DHT22;36557;53.572;10.170;2024-02-23T13:03:15;9.00;1.00
50606;DHT22;36557;53.572;10.170;2024-02-23T13:05:41;9.00;1.00
50606;DHT22;36557;53.572;10.170;2024-02-23T13:08:07;8.90;1.00
50606;DHT22;36557;53.572;10.170;2024-02-23T13:10:33;8.90;1.00
50606;DHT22;36557;53.572;10.170;2024-02-23T13:13:00;8.80;1.00
50606;DHT22;36557;53.572;10.170;2024-02-23T13:15:26;8.90;1.00
50606;DHT22;36557;53.572;10.170;2024-02-23T13:17:52;8.90;1.00
50606;DHT22;36557;53.572;10.170;2024-02-23T13:20:17;8.90;1.00
50606;DHT22;36557;53.572;10.170;2024-02-23T13:22:43;9.00;1.00
50606;DHT22;36557;53.572;10.170;2024-02-23T13:25:09;9.00;1.00
50606;DHT22;36557;53.572;10.170;2024-02-23T13:27:35;9.10;1.00
50606;DHT22;36557;53.572;10.170;2024-02-23T13:30:01;9.10;1.00
50606;DHT22;36557;53.572;10.170;2024-02-23T13:32:27;9.10;1.00
50606;DHT22;36557;53.572;10.170;2024-02-23T13:34:53;9.10;1.00
50606;DHT22;36557;53.572;10.170;2024-02-23T13:37:18;9.20;1.00
50606;DHT22;36557;53.572;10.170;2024-02-23T13:39:44;9.10;99.90
50606;DHT22;36557;53.572;10.170;2024-02-23T13:42:10;9.10;99.90
50606;DHT22;36557;53.572;10.170;2024-02-23T13:44:36;9.10;1.00
50606;DHT22;36557;53.572;10.170;2024-02-23T13:47:02;9.00;99.90
50606;DHT22;36557;53.572;10.170;2024-02-23T13:49:28;9.00;99.90
50606;DHT22;36557;53.572;10.170;2024-02-23T13:51:54;9.00;99.90
50606;DHT22;36557;53.572;10.170;2024-02-23T13:54:20;8.90;99.90
50606;DHT22;36557;53.572;10.170;2024-02-23T13:56:47;8.90;99.90
50606;DHT22;36557;53.572;10.170;2024-02-23T13:59:12;8.90;99.90
50606;DHT22;36557;53.572;10.170;2024-02-23T14:01:38;8.90;99.90
50606;DHT22;36557;53.572;10.170;2024-02-23T14:04:07;8.90;99.90
50606;DHT22;36557;53.572;10.170;2024-02-23T14:06:33;8.90;99.90
50606;DHT22;36557;53.572;10.170;2024-02-23T14:08:58;8.90;99.90
50606;DHT22;36557;53.572;10.170;2024-02-23T14:11:25;9.00;99.90
50606;DHT22;36557;53.572;10.170;2024-02-23T14:13:50;9.00;99.90
50606;DHT22;36557;53.572;10.170;2024-02-23T14:16:16;9.00;99.90
50606;DHT22;36557;53.572;10.170;2024-02-23T14:18:42;8.90;1.00
50606;DHT22;36557;53.572;10.170;2024-02-23T14:21:10;8.90;99.90
50606;DHT22;36557;53.572;10.170;2024-02-23T14:23:36;9.00;1.00
50606;DHT22;36557;53.572;10.170;2024-02-23T14:26:03;9.00;99.90
50606;DHT22;36557;53.572;10.170;2024-02-23T14:28:29;9.10;99.90
50606;DHT22;36557;53.572;10.170;2024-02-23T14:30:54;9.10;99.90
50606;DHT22;36557;53.572;10.170;2024-02-23T14:33:20;9.20;1.00
50606;DHT22;36557;53.572;10.170;2024-02-23T14:35:46;9.20;1.00
50606;DHT22;36557;53.572;10.170;2024-02-23T14:38:12;9.20;1.00
50606;DHT22;36557;53.572;10.170;2024-02-23T14:40:38;9.20;1.00
50606;DHT22;36557;53.572;10.170;2024-02-23T14:43:05;9.30;1.00
50606;DHT22;36557;53.572;10.170;2024-02-23T14:45:30;9.40;1.00
50606;DHT22;36557;53.572;10.170;2024-02-23T14:47:57;9.30;1.00
50606;DHT22;36557;53.572;10.170;2024-02-23T14:50:23;9.30;1.00
50606;DHT22;36557;53.572;10.170;2024-02-23T14:52:50;9.20;1.00
50606;DHT22;36557;53.572;10.170;2024-02-23T14:55:15;9.10;1.00
50606;DHT22;36557;53.572;10.170;2024-02-23T14:57:42;9.00;1.00
50606;DHT22;36557;53.572;10.170;2024-02-23T15:00:08;9.00;1.00
50606;DHT22;36557;53.572;10.170;2024-02-23T15:02:35;9.00;1.00
50606;DHT22;36557;53.572;10.170;2024-02-23T15:05:01;9.10;1.00
50606;DHT22;36557;53.572;10.170;2024-02-23T15:07:26;9.10;1.00
50606;DHT22;36557;53.572;10.170;2024-02-23T15:09:53;9.10;1.00
50606;DHT22;36557;53.572;10.170;2024-02-23T15:12:19;9.00;1.00
50606;DHT22;36557;53.572;10.170;2024-02-23T15:14:47;9.00;1.00
50606;DHT22;36557;53.572;10.170;2024-02-23T15:17:13;9.00;1.00
50606;DHT22;36557;53.572;10.170;2024-02-23T15:19:38;9.00;85.90
50606;DHT22;36557;53.572;10.170;2024-02-23T15:22:04;8.90;1.00
50606;DHT22;36557;53.572;10.170;2024-02-23T15:24:33;8.90;99.90
50606;DHT22;36557;53.572;10.170;2024-02-23T15:26:58;8.90;99.90
50606;DHT22;36557;53.572;10.170;2024-02-23T15:29:24;8.90;99.90
50606;DHT22;36557;53.572;10.170;2024-02-23T15:31:50;8.90;99.90
50606;DHT22;36557;53.572;10.170;2024-02-23T15:34:16;8.80;99.90
50606;DHT22;36557;53.572;10.170;2024-02-23T15:36:42;8.80;99.90
50606;DHT22;36557;53.572;10.170;2024-02-23T15:39:08;8.80;99.90
50606;DHT22;36557;53.572;10.170;2024-02-23T15:41:34;8.80;99.90
50606;DHT22;36557;53.572;10.170;2024-02-23T15:44:02;8.70;99.90
50606;DHT22;36557;53.572;10.170;2024-02-23T15:46:28;8.70;99.90
50606;DHT22;36557;53.572;10.170;2024-02-23T15:48:55;8.80;99.90
50606;DHT22;36557;53.572;10.170;2024-02-23T15:51:21;8.80;99.90
50606;DHT22;36557;53.572;10.170;2024-02-23T15:53:47;8.80;99.90
50606;DHT22;36557;53.572;10.170;2024-02-23T15:56:12;8.80;99.90
50606;DHT22;36557;53.572;10.170;2024-02-23T15:58:38;8.80;99.90
50606;DHT22;36557;53.572;10.170;2024-02-23T16:01:04;8.70;99.90
50606;DHT22;36557;53.572;10.170;2024-02-23T16:03:30;8.60;99.90
50606;DHT22;36557;53.572;10.170;2024-02-23T16:05:56;8.70;99.90
50606;DHT22;36557;53.572;10.170;2024-02-23T16:08:44;8.60;99.90
50606;DHT22;36557;53.572;10.170;2024-02-23T16:11:12;8.60;99.90
50606;DHT22;36557;53.572;10.170;2024-02-23T16:13:39;8.60;99.90
50606;DHT22;36557;53.572;10.170;2024-02-23T16:16:09;8.60;99.90
50606;DHT22;36557;53.572;10.170;2024-02-23T16:18:36;8.50;99.90
50606;DHT22;36557;53.572;10.170;2024-02-23T16:21:02;8.50;99.90
50606;DHT22;36557;53.572;10.170;2024-02-23T16:23:28;8.50;99.90
50606;DHT22;36557;53.572;10.170;2024-02-23T16:25:54;8.50;99.90
50606;DHT22;36557;53.572;10.170;2024-02-23T16:28:20;8.50;99.90
50606;DHT22;36557;53.572;10.170;2024-02-23T16:30:46;8.50;99.90
50606;DHT22;36557;53.572;10.170;2024-02-23T16:33:13;8.50;99.90
50606;DHT22;36557;53.572;10.170;2024-02-23T16:35:39;8.50;99.90
50606;DHT22;36557;53.572;10.170;2024-02-23T16:38:04;8.40;1.00
50606;DHT22;36557;53.572;10.170;2024-02-23T16:40:30;8.40;1.00
50606;DHT22;36557;53.572;10.170;2024-02-23T16:42:56;8.40;1.00
50606;DHT22;36557;53.572;10.170;2024-02-23T16:45:23;8.40;1.00
50606;DHT22;36557;53.572;10.170;2024-02-23T16:47:49;8.40;1.00
50606;DHT22;36557;53.572;10.170;2024-02-23T16:50:16;8.30;1.00
50606;DHT22;36557;53.572;10.170;2024-02-23T16:52:41;8.20;1.00
50606;DHT22;36557;53.572;10.170;2024-02-23T16:55:07;8.10;1.00
50606;DHT22;36557;53.572;10.170;2024-02-23T16:57:33;8.00;1.00
50606;DHT22;36557;53.572;10.170;2024-02-23T17:00:00;8.00;1.00
50606;DHT22;36557;53.572;10.170;2024-02-23T17:02:25;8.00;1.00
50606;DHT22;36557;53.572;10.170;2024-02-23T17:04:51;8.00;1.00
50606;DHT22;36557;53.572;10.170;2024-02-23T17:07:17;8.00;1.00
50606;DHT22;36557;53.572;10.170;2024-02-23T17:09:42;8.00;1.00
50606;DHT22;36557;53.572;10.170;2024-02-23T17:12:09;8.00;1.00
50606;DHT22;36557;53.572;10.170;2024-02-23T17:14:35;8.00;1.00
50606;DHT22;36557;53.572;10.170;2024-02-23T17:17:01;8.00;1.00
50606;DHT22;36557;53.572;10.170;2024-02-23T17:19:27;8.10;1.00
50606;DHT22;36557;53.572;10.170;2024-02-23T17:21:52;8.10;1.00
50606;DHT22;36557;53.572;10.170;2024-02-23T17:24:18;8.10;1.00
50606;DHT22;36557;53.572;10.170;2024-02-23T17:26:44;8.20;1.00
50606;DHT22;36557;53.572;10.170;2024-02-23T17:29:09;8.20;1.00
50606;DHT22;36557;53.572;10.170;2024-02-23T17:31:37;8.20;1.00
50606;DHT22;36557;53.572;10.170;2024-02-23T17:34:03;8.30;1.00
50606;DHT22;36557;53.572;10.170;2024-02-23T17:36:29;8.20;1.00
50606;DHT22;36557;53.572;10.170;2024-02-23T17:38:55;8.20;1.00
50606;DHT22;36557;53.572;10.170;2024-02-23T17:41:21;8.20;1.00
50606;DHT22;36557;53.572;10.170;2024-02-23T17:43:46;8.20;1.00
50606;DHT22;36557;53.572;10.170;2024-02-23T17:46:12;8.10;1.00
50606;DHT22;36557;53.572;10.170;2024-02-23T17:48:38;8.00;1.00
50606;DHT22;36557;53.572;10.170;2024-02-23T17:51:04;8.00;9.50
50606;DHT22;36557;53.572;10.170;2024-02-23T17:53:30;7.90;38.80
50606;DHT22;36557;53.572;10.170;2024-02-23T17:55:56;7.80;57.80
50606;DHT22;36557;53.572;10.170;2024-02-23T17:58:25;7.70;95.50
50606;DHT22;36557;53.572;10.170;2024-02-23T18:00:51;7.60;99.90
50606;DHT22;36557;53.572;10.170;2024-02-23T18:03:17;7.50;99.90
50606;DHT22;36557;53.572;10.170;2024-02-23T18:05:45;7.40;99.90
50606;DHT22;36557;53.572;10.170;2024-02-23T18:08:11;7.40;99.90
50606;DHT22;36557;53.572;10.170;2024-02-23T18:10:37;7.30;99.90
50606;DHT22;36557;53.572;10.170;2024-02-23T18:13:04;7.20;99.90
50606;DHT22;36557;53.572;10.170;2024-02-23T18:15:30;7.20;99.90
50606;DHT22;36557;53.572;10.170;2024-02-23T18:17:55;7.20;99.90
50606;DHT22;36557;53.572;10.170;2024-02-23T18:20:21;7.20;99.90
50606;DHT22;36557;53.572;10.170;2024-02-23T18:22:48;7.20;99.90
50606;DHT22;36557;53.572;10.170;2024-02-23T18:25:14;7.20;99.90
50606;DHT22;36557;53.572;10.170;2024-02-23T18:27:40;7.20;99.90
50606;DHT22;36557;53.572;10.170;2024-02-23T18:30:06;7.20;99.90
50606;DHT22;36557;53.572;10.170;2024-02-23T18:32:32;7.30;99.90
50606;DHT22;36557;53.572;10.170;2024-02-23T18:34:58;7.30;99.90
50606;DHT22;36557;53.572;10.170;2024-02-23T18:37:24;7.30;99.90
50606;DHT22;36557;53.572;10.170;2024-02-23T18:39:49;7.30;99.90
50606;DHT22;36557;53.572;10.170;2024-02-23T18:44:42;7.30;99.90
50606;DHT22;36557;53.572;10.170;2024-02-23T18:47:08;7.30;99.90
50606;DHT22;36557;53.572;10.170;2024-02-23T18:49:34;7.30;99.90
50606;DHT22;36557;53.572;10.170;2024-02-23T18:51:59;7.30;99.90
50606;DHT22;36557;53.572;10.170;2024-02-23T18:54:25;7.30;99.90
50606;DHT22;36557;53.572;10.170;2024-02-23T18:56:51;7.30;99.90
50606;DHT22;36557;53.572;10.170;2024-02-23T18:59:18;7.40;99.90
50606;DHT22;36557;53.572;10.170;2024-02-23T19:01:44;7.30;99.90
50606;DHT22;36557;53.572;10.170;2024-02-23T19:04:12;7.30;99.90
50606;DHT22;36557;53.572;10.170;2024-02-23T19:06:37;7.20;99.90
50606;DHT22;36557;53.572;10.170;2024-02-23T19:09:03;7.30;99.90
50606;DHT22;36557;53.572;10.170;2024-02-23T19:11:31;7.40;99.90
50606;DHT22;36557;53.572;10.170;2024-02-23T19:13:57;7.30;99.90
50606;DHT22;36557;53.572;10.170;2024-02-23T19:16:23;7.30;99.90
50606;DHT22;36557;53.572;10.170;2024-02-23T19:18:49;7.30;99.90
50606;DHT22;36557;53.572;10.170;2024-02-23T19:21:15;7.30;99.90
50606;DHT22;36557;53.572;10.170;2024-02-23T19:23:43;7.20;99.90
50606;DHT22;36557;53.572;10.170;2024-02-23T19:26:10;7.10;99.90
50606;DHT22;36557;53.572;10.170;2024-02-23T19:28:36;7.00;99.90
50606;DHT22;36557;53.572;10.170;2024-02-23T19:31:01;7.00;99.90
50606;DHT22;36557;53.572;10.170;2024-02-23T19:33:27;6.90;99.90
50606;DHT22;36557;53.572;10.170;2024-02-23T19:35:53;6.80;99.90
50606;DHT22;36557;53.572;10.170;2024-02-23T19:38:19;6.80;99.90
50606;DHT22;36557;53.572;10.170;2024-02-23T19:40:45;6.70;99.90
50606;DHT22;36557;53.572;10.170;2024-02-23T19:43:11;6.70;99.90
50606;DHT22;36557;53.572;10.170;2024-02-23T19:45:36;6.70;99.90
50606;DHT22;36557;53.572;10.170;2024-02-23T19:48:02;6.60;99.90
50606;DHT22;36557;53.572;10.170;2024-02-23T19:50:28;6.50;99.90
50606;DHT22;36557;53.572;10.170;2024-02-23T19:52:54;6.40;99.90
50606;DHT22;36557;53.572;10.170;2024-02-23T19:55:19;6.40;99.90
50606;DHT22;36557;53.572;10.170;2024-02-23T19:57:45;6.40;99.90
50606;DHT22;36557;53.572;10.170;2024-02-23T20:00:11;6.40;99.90
50606;DHT22;36557;53.572;10.170;2024-02-23T20:02:37;6.30;99.90
50606;DHT22;36557;53.572;10.170;2024-02-23T20:05:03;6.20;99.90
50606;DHT22;36557;53.572;10.170;2024-02-23T20:07:29;6.20;99.90
50606;DHT22;36557;53.572;10.170;2024-02-23T20:09:54;6.10;99.90
50606;DHT22;36557;53.572;10.170;2024-02-23T20:12:21;6.10;99.90
50606;DHT22;36557;53.572;10.170;2024-02-23T20:14:47;6.00;99.90
50606;DHT22;36557;53.572;10.170;2024-02-23T20:17:16;6.00;99.90
50606;DHT22;36557;53.572;10.170;2024-02-23T20:19:42;5.90;99.90
50606;DHT22;36557;53.572;10.170;2024-02-23T20:22:08;5.90;99.90
50606;DHT22;36557;53.572;10.170;2024-02-23T20:24:33;5.80;99.90
50606;DHT22;36557;53.572;10.170;2024-02-23T20:27:00;5.80;99.90
50606;DHT22;36557;53.572;10.170;2024-02-23T20:29:27;5.80;99.90
50606;DHT22;36557;53.572;10.170;2024-02-23T20:31:52;5.70;99.90
50606;DHT22;36557;53.572;10.170;2024-02-23T20:34:18;5.60;99.90
50606;DHT22;36557;53.572;10.170;2024-02-23T20:36:44;5.70;99.90
50606;DHT22;36557;53.572;10.170;2024-02-23T20:39:10;5.60;99.90
50606;DHT22;36557;53.572;10.170;2024-02-23T20:41:36;5.60;99.90
50606;DHT22;36557;53.572;10.170;2024-02-23T20:44:02;5.60;99.90
50606;DHT22;36557;53.572;10.170;2024-02-23T20:46:28;5.60;99.90
50606;DHT22;36557;53.572;10.170;2024-02-23T20:48:54;5.60;99.90
50606;DHT22;36557;53.572;10.170;2024-02-23T20:51:21;5.50;99.90
50606;DHT22;36557;53.572;10.170;2024-02-23T20:53:47;5.50;99.90
50606;DHT22;36557;53.572;10.170;2024-02-23T20:56:13;5.50;99.90
50606;DHT22;36557;53.572;10.170;2024-02-23T20:58:39;5.60;99.90
50606;DHT22;36557;53.572;10.170;2024-02-23T21:01:06;5.60;99.90
50606;DHT22;36557;53.572;10.170;2024-02-23T21:03:36;5.50;99.90
50606;DHT22;36557;53.572;10.170;2024-02-23T21:06:03;5.50;99.90
50606;DHT22;36557;53.572;10.170;2024-02-23T21:08:29;5.60;99.90
50606;DHT22;36557;53.572;10.170;2024-02-23T21:10:55;5.60;99.90
50606;DHT22;36557;53.572;10.170;2024-02-23T21:13:20;5.70;99.90
50606;DHT22;36557;53.572;10.170;2024-02-23T21:15:46;5.70;99.90
50606;DHT22;36557;53.572;10.170;2024-02-23T21:18:12;5.80;99.90
50606;DHT22;36557;53.572;10.170;2024-02-23T21:20:44;5.80;99.90
50606;DHT22;36557;53.572;10.170;2024-02-23T21:23:13;5.80;99.90
50606;DHT22;36557;53.572;10.170;2024-02-23T21:25:39;5.90;99.90
50606;DHT22;36557;53.572;10.170;2024-02-23T21:28:05;5.90;99.90
50606;DHT22;36557;53.572;10.170;2024-02-23T21:30:31;6.00;99.90
50606;DHT22;36557;53.572;10.170;2024-02-23T21:32:57;6.00;99.90
50606;DHT22;36557;53.572;10.170;2024-02-23T21:35:23;6.10;99.90
50606;DHT22;36557;53.572;10.170;2024-02-23T21:37:51;6.00;99.90
50606;DHT22;36557;53.572;10.170;2024-02-23T21:40:17;6.00;99.90
50606;DHT22;36557;53.572;10.170;2024-02-23T21:42:43;6.00;99.90
50606;DHT22;36557;53.572;10.170;2024-02-23T21:45:09;6.00;99.90
50606;DHT22;36557;53.572;10.170;2024-02-23T21:47:35;6.10;99.90
50606;DHT22;36557;53.572;10.170;2024-02-23T21:50:01;6.00;99.90
50606;DHT22;36557;53.572;10.170;2024-02-23T21:52:27;5.90;99.90
50606;DHT22;36557;53.572;10.170;2024-02-23T21:54:53;5.90;99.90
50606;DHT22;36557;53.572;10.170;2024-02-23T21:57:18;5.90;99.90
50606;DHT22;36557;53.572;10.170;2024-02-23T21:59:44;5.80;99.90
50606;DHT22;36557;53.572;10.170;2024-02-23T22:02:10;5.70;99.90
50606;DHT22;36557;53.572;10.170;2024-02-23T22:04:36;5.70;99.90
50606;DHT22;36557;53.572;10.170;2024-02-23T22:07:03;5.70;99.90
50606;DHT22;36557;53.572;10.170;2024-02-23T22:09:29;5.60;99.90
50606;DHT22;36557;53.572;10.170;2024-02-23T22:11:55;5.60;99.90
50606;DHT22;36557;53.572;10.170;2024-02-23T22:14:21;5.50;99.90
50606;DHT22;36557;53.572;10.170;2024-02-23T22:16:46;5.50;99.90
50606;DHT22;36557;53.572;10.170;2024-02-23T22:19:12;5.50;99.90
50606;DHT22;36557;53.572;10.170;2024-02-23T22:21:38;5.50;99.90
50606;DHT22;36557;53.572;10.170;2024-02-23T22:24:03;5.60;99.90
50606;DHT22;36557;53.572;10.170;2024-02-23T22:26:29;5.60;99.90
50606;DHT22;36557;53.572;10.170;2024-02-23T22:28:55;5.60;99.90
50606;DHT22;36557;53.572;10.170;2024-02-23T22:31:22;5.60;99.90
50606;DHT22;36557;53.572;10.170;2024-02-23T22:33:47;5.70;99.90
50606;DHT22;36557;53.572;10.170;2024-02-23T22:36:13;5.70;99.90
50606;DHT22;36557;53.572;10.170;2024-02-23T22:38:39;5.60;99.90
50606;DHT22;36557;53.572;10.170;2024-02-23T22:41:04;5.60;99.90
50606;DHT22;36557;53.572;10.170;2024-02-23T22:43:30;5.60;99.90
50606;DHT22;36557;53.572;10.170;2024-02-23T22:45:56;5.60;99.90
50606;DHT22;36557;53.572;10.170;2024-02-23T22:48:28;5.60;99.90
50606;DHT22;36557;53.572;10.170;2024-02-23T22:50:54;5.50;99.90
50606;DHT22;36557;53.572;10.170;2024-02-23T22:53:20;5.30;99.90
50606;DHT22;36557;53.572;10.170;2024-02-23T22:55:45;5.20;99.90
50606;DHT22;36557;53.572;10.170;2024-02-23T22:58:12;5.30;99.90
50606;DHT22;36557;53.572;10.170;2024-02-23T23:00:38;5.20;99.90
50606;DHT22;36557;53.572;10.170;2024-02-23T23:03:03;5.20;99.90
50606;DHT22;36557;53.572;10.170;2024-02-23T23:05:29;5.20;99.90
50606;DHT22;36557;53.572;10.170;2024-02-23T23:07:55;5.20;99.90
50606;DHT22;36557;53.572;10.170;2024-02-23T23:10:21;5.10;99.90
50606;DHT22;36557;53.572;10.170;2024-02-23T23:12:46;5.00;99.90
50606;DHT22;36557;53.572;10.170;2024-02-23T23:15:12;5.00;99.90
50606;DHT22;36557;53.572;10.170;2024-02-23T23:17:38;5.00;99.90
50606;DHT22;36557;53.572;10.170;2024-02-23T23:20:04;4.90;99.90
50606;DHT22;36557;53.572;10.170;2024-02-23T23:22:34;4.80;99.90
50606;DHT22;36557;53.572;10.170;2024-02-23T23:25:01;4.80;99.90
50606;DHT22;36557;53.572;10.170;2024-02-23T23:27:26;4.70;99.90
50606;DHT22;36557;53.572;10.170;2024-02-23T23:29:53;4.60;99.90
50606;DHT22;36557;53.572;10.170;2024-02-23T23:32:18;4.60;99.90
50606;DHT22;36557;53.572;10.170;2024-02-23T23:34:44;4.60;99.90
50606;DHT22;36557;53.572;10.170;2024-02-23T23:37:10;4.50;99.90
50606;DHT22;36557;53.572;10.170;2024-02-23T23:39:35;4.50;99.90
50606;DHT22;36557;53.572;10.170;2024-02-23T23:42:01;4.50;99.90
50606;DHT22;36557;53.572;10.170;2024-02-23T23:44:27;4.50;99.90
50606;DHT22;36557;53.572;10.170;2024-02-23T23:46:53;4.50;99.90
50606;DHT22;36557;53.572;10.170;2024-02-23T23:49:19;4.60;99.90
50606;DHT22;36557;53.572;10.170;2024-02-23T23:51:45;4.50;99.90
50606;DHT22;36557;53.572;10.170;2024-02-23T23:54:10;4.60;99.90
50606;DHT22;36557;53.572;10.170;2024-02-23T23:56:36;4.60;99.90
50606;DHT22;36557;53.572;10.170;2024-02-23T23:59:02;4.60;99.90
